createdAt,value
2022-09-05T00:04:38.257Z,17.64
2022-09-05T00:10:08.357Z,17.62
2022-09-05T00:15:28.123Z,17.55
2022-09-05T00:24:37.273Z,17.49
2022-09-05T00:26:22.315Z,17.40
2022-09-05T00:31:54.744Z,17.31
2022-09-05T00:37:01.936Z,17.26
2022-09-05T00:42:11.610Z,17.19
2022-09-05T00:47:38.891Z,17.13
2022-09-05T00:52:50.505Z,17.05
2022-09-05T00:58:34.362Z,17.01
2022-09-05T01:04:05.979Z,17.00
2022-09-05T01:09:17.232Z,16.93
2022-09-05T01:14:42.349Z,16.91
2022-09-05T01:20:19.359Z,16.90
2022-09-05T01:25:46.963Z,16.84
2022-09-05T01:31:12.411Z,16.77
2022-09-05T01:36:31.621Z,16.75
2022-09-05T01:41:44.231Z,16.75
2022-09-05T01:47:01.864Z,16.74
2022-09-05T01:52:25.627Z,16.71
2022-09-05T01:57:38.549Z,16.69
2022-09-05T02:03:01.754Z,16.64
2022-09-05T02:08:30.338Z,16.58
2022-09-05T02:13:57.193Z,16.55
2022-09-05T02:19:15.047Z,16.47
2022-09-05T02:24:25.764Z,16.37
2022-09-05T02:29:38.106Z,16.32
2022-09-05T02:34:53.851Z,16.31
2022-09-05T02:45:09.645Z,16.25
2022-09-05T02:45:40.603Z,16.20
2022-09-05T02:56:42.507Z,16.14
2022-09-05T02:57:43.080Z,16.12
2022-09-05T03:02:26.125Z,16.09
2022-09-05T03:07:48.101Z,16.05
2022-09-05T03:13:28.681Z,16.00
2022-09-05T03:19:14.771Z,15.85
2022-09-05T03:24:56.001Z,15.74
2022-09-05T03:30:12.305Z,15.63
2022-09-05T03:35:46.636Z,15.57
2022-09-05T03:41:12.032Z,15.54
2022-09-05T03:46:50.778Z,15.49
2022-09-05T03:57:10.744Z,15.37
2022-09-05T03:58:18.219Z,15.27
2022-09-05T04:07:08.772Z,15.18
2022-09-05T04:08:59.189Z,15.04
2022-09-05T04:14:11.063Z,14.97
2022-09-05T04:19:22.780Z,14.89
2022-09-05T04:24:33.003Z,14.85
2022-09-05T04:29:59.412Z,14.83
2022-09-05T04:35:25.392Z,14.77
2022-09-05T04:40:40.446Z,14.71
2022-09-05T04:45:54.052Z,14.66
2022-09-05T04:51:13.175Z,14.64
2022-09-05T04:56:23.711Z,14.63
2022-09-05T05:06:02.382Z,14.62
2022-09-05T05:07:10.127Z,14.60
2022-09-05T05:17:25.367Z,14.61
2022-09-05T05:18:49.092Z,14.63
2022-09-05T05:23:31.852Z,14.65
2022-09-05T05:28:52.130Z,14.67
2022-09-05T05:34:03.843Z,14.68
2022-09-05T05:39:22.538Z,14.72
2022-09-05T05:44:30.783Z,14.79
2022-09-05T05:49:49.714Z,14.87
2022-09-05T05:55:52.368Z,14.94
2022-09-05T06:00:36.424Z,15.05
2022-09-05T06:06:11.464Z,15.19
2022-09-05T06:14:51.045Z,15.33
2022-09-05T06:17:35.916Z,15.52
2022-09-05T06:23:05.011Z,15.65
2022-09-05T06:28:23.077Z,15.81
2022-09-05T06:33:48.503Z,15.98
2022-09-05T06:39:08.569Z,16.17
2022-09-05T06:44:28.416Z,16.33
2022-09-05T06:49:50.455Z,16.52
2022-09-05T06:55:28.018Z,16.75
2022-09-05T07:00:42.987Z,16.95
2022-09-05T07:05:57.848Z,17.16
2022-09-05T07:11:15.765Z,17.40
2022-09-05T07:16:38.015Z,17.62
2022-09-05T07:21:49.067Z,17.78
2022-09-05T07:27:01.721Z,17.97
2022-09-05T07:32:11.868Z,18.21
2022-09-05T07:37:24.262Z,18.43
2022-09-05T07:42:37.266Z,18.66
2022-09-05T07:47:52.028Z,18.85
2022-09-05T07:56:55.051Z,19.00
2022-09-05T07:58:26.589Z,19.25
2022-09-05T08:03:34.109Z,19.48
2022-09-05T08:08:55.975Z,19.65
2022-09-05T08:14:40.755Z,19.89
2022-09-05T08:20:12.825Z,20.09
2022-09-05T08:25:21.296Z,20.30
2022-09-05T08:30:30.550Z,20.51
2022-09-05T08:35:45.028Z,20.70
2022-09-05T08:40:56.347Z,20.94
2022-09-05T08:46:42.292Z,21.21
2022-09-05T08:51:54.072Z,21.60
2022-09-05T08:57:05.250Z,21.77
2022-09-05T09:02:55.033Z,21.95
2022-09-05T09:08:16.098Z,22.16
2022-09-05T09:13:34.646Z,22.35
2022-09-05T09:19:06.007Z,22.55
2022-09-05T09:24:27.733Z,22.71
2022-09-05T09:29:39.192Z,22.89
2022-09-05T09:34:56.466Z,23.15
2022-09-05T09:40:24.655Z,23.35
2022-09-05T09:45:49.316Z,23.55
2022-09-05T09:51:14.589Z,23.76
2022-09-05T09:56:51.034Z,23.97
2022-09-05T10:04:05.733Z,24.21
2022-09-05T10:10:58.386Z,24.42
2022-09-05T10:14:24.242Z,24.59
2022-09-05T10:20:11.716Z,24.76
2022-09-05T10:25:51.426Z,24.97
2022-09-05T10:32:16.324Z,25.12
2022-09-05T10:36:41.950Z,25.21
2022-09-05T10:41:51.048Z,25.36
2022-09-05T10:47:09.596Z,25.43
2022-09-05T10:52:19.277Z,25.68
2022-09-05T10:57:38.349Z,25.92
2022-09-05T11:02:49.153Z,26.10
2022-09-05T11:08:07.290Z,26.18
2022-09-05T11:13:23.970Z,26.30
2022-09-05T11:18:55.200Z,26.36
2022-09-05T11:24:10.398Z,26.45
2022-09-05T11:29:19.030Z,26.49
2022-09-05T11:39:57.301Z,26.59
2022-09-05T11:40:44.818Z,26.71
2022-09-05T11:46:23.593Z,26.81
2022-09-05T11:52:07.667Z,26.77
2022-09-05T11:57:34.454Z,26.88
2022-09-05T12:03:12.203Z,26.97
2022-09-05T12:08:43.412Z,27.06
2022-09-05T12:13:54.788Z,27.16
2022-09-05T12:19:19.367Z,27.28
2022-09-05T12:25:15.559Z,27.38
2022-09-05T12:30:02.772Z,27.62
2022-09-05T12:36:07.973Z,28.02
2022-09-05T12:41:36.786Z,28.22
2022-09-05T12:46:14.995Z,28.28
2022-09-05T12:51:46.139Z,28.48
2022-09-05T13:02:01.489Z,28.45
2022-09-05T13:03:07.315Z,28.22
2022-09-05T13:07:59.400Z,28.20
2022-09-05T13:14:53.613Z,28.21
2022-09-05T13:18:44.441Z,28.07
2022-09-05T13:24:00.998Z,27.95
2022-09-05T13:29:16.807Z,27.78
2022-09-05T13:38:17.618Z,27.69
2022-09-05T13:39:57.332Z,27.47
2022-09-05T13:45:06.397Z,27.31
2022-09-05T13:50:24.044Z,27.33
2022-09-05T13:55:41.590Z,27.24
2022-09-05T14:01:14.504Z,27.25
2022-09-05T14:06:48.921Z,27.64
2022-09-05T14:12:05.441Z,27.84
2022-09-05T14:23:03.859Z,27.78
2022-09-05T14:28:16.013Z,27.78
2022-09-05T14:37:45.452Z,28.02
2022-09-05T14:39:31.986Z,28.02
2022-09-05T14:44:51.769Z,27.92
2022-09-05T14:50:17.926Z,27.82
2022-09-05T14:55:25.721Z,27.72
2022-09-05T15:02:51.542Z,28.20
2022-09-05T15:05:59.006Z,28.79
2022-09-05T15:12:17.200Z,29.17
2022-09-05T15:16:40.474Z,29.46
2022-09-05T15:21:48.316Z,29.81
2022-09-05T15:26:54.953Z,29.89
2022-09-05T15:32:16.269Z,30.17
2022-09-05T15:37:31.901Z,30.26
2022-09-05T15:42:38.508Z,30.15
2022-09-05T15:47:50.657Z,29.61
2022-09-05T15:52:58.807Z,29.58
2022-09-05T15:58:07.513Z,29.55
2022-09-05T16:05:10.296Z,29.35
2022-09-05T16:10:36.592Z,29.45
2022-09-05T16:14:30.290Z,29.54
2022-09-05T16:23:20.280Z,29.67
2022-09-05T16:25:11.380Z,29.48
2022-09-05T16:30:23.911Z,29.32
2022-09-05T16:35:29.161Z,29.29
2022-09-05T16:40:41.368Z,28.98
2022-09-05T16:45:52.041Z,28.74
2022-09-05T16:51:13.456Z,28.43
2022-09-05T16:56:26.456Z,27.80
2022-09-05T17:01:48.773Z,27.22
2022-09-05T17:07:06.320Z,26.99
2022-09-05T17:12:22.065Z,26.69
2022-09-05T17:18:19.411Z,26.19
2022-09-05T17:27:42.800Z,25.71
2022-09-05T17:29:29.819Z,25.32
2022-09-05T17:34:43.432Z,24.99
2022-09-05T17:39:56.608Z,24.64
2022-09-05T17:45:15.666Z,24.34
2022-09-05T17:50:23.206Z,24.18
2022-09-05T17:55:58.761Z,24.05
2022-09-05T18:01:26.786Z,23.87
2022-09-05T18:06:35.819Z,23.68
2022-09-05T18:17:59.965Z,23.36
2022-09-05T18:29:19.251Z,23.19
2022-09-05T18:34:45.568Z,23.09
2022-09-05T18:40:07.198Z,22.98
2022-09-05T18:45:16.466Z,22.84
2022-09-05T18:50:27.943Z,22.71
2022-09-05T18:56:14.249Z,22.53
2022-09-05T19:01:22.727Z,22.39
2022-09-05T19:06:38.000Z,22.26
2022-09-05T19:11:55.371Z,22.11
2022-09-05T19:17:07.602Z,21.95
2022-09-05T19:23:08.625Z,21.85
2022-09-05T19:34:56.295Z,21.78
2022-09-05T19:37:13.890Z,21.68
2022-09-05T19:41:13.581Z,21.57
2022-09-05T19:47:45.139Z,21.53
2022-09-05T19:50:01.696Z,21.51
2022-09-05T19:55:21.234Z,21.44
2022-09-05T20:00:31.102Z,21.36
2022-09-05T20:05:36.022Z,21.32
2022-09-05T20:10:40.721Z,21.29
2022-09-05T20:15:48.043Z,21.22
2022-09-05T20:20:56.092Z,21.13
2022-09-05T20:31:19.391Z,21.01
2022-09-05T20:42:14.070Z,21.01
2022-09-05T20:43:14.981Z,20.94
2022-09-05T20:50:35.709Z,20.90
2022-09-05T20:54:18.233Z,20.84
2022-09-05T20:58:19.292Z,20.80
2022-09-05T21:03:36.776Z,20.78
2022-09-05T21:08:41.942Z,20.69
2022-09-05T21:13:53.534Z,20.62
2022-09-05T21:19:00.965Z,20.64
2022-09-05T21:24:16.117Z,20.63
2022-09-05T21:29:32.805Z,20.62
2022-09-05T21:34:45.339Z,20.59
2022-09-05T21:40:00.529Z,20.57
2022-09-05T21:47:42.244Z,20.41
2022-09-05T21:50:39.749Z,20.32
2022-09-05T21:59:21.315Z,20.25
2022-09-05T22:01:09.045Z,20.16
2022-09-05T22:06:18.778Z,20.08
2022-09-05T22:11:23.830Z,20.00
2022-09-05T22:16:34.530Z,19.96
2022-09-05T22:21:43.041Z,19.98
2022-09-05T22:27:12.267Z,19.97
2022-09-05T22:32:28.562Z,19.94
2022-09-05T22:37:44.567Z,19.93
2022-09-05T22:42:58.239Z,19.92
2022-09-05T22:48:08.813Z,19.89
2022-09-05T22:53:15.993Z,19.89
2022-09-05T22:58:21.639Z,19.93
2022-09-05T23:03:26.304Z,19.93
2022-09-05T23:08:33.613Z,19.90
2022-09-05T23:13:38.288Z,19.86
2022-09-05T23:18:43.586Z,19.82
2022-09-05T23:23:50.788Z,19.78
2022-09-05T23:28:55.439Z,19.67
2022-09-05T23:34:00.079Z,19.66
2022-09-05T23:39:07.313Z,19.63
2022-09-05T23:44:12.137Z,19.55
2022-09-05T23:49:16.989Z,19.49
2022-09-05T23:54:24.827Z,19.49
2022-09-05T23:59:29.595Z,19.47
